createdAt,value
2018-12-03T00:02:37.533Z,5.40
2018-12-03T00:07:37.769Z,4.50
2018-12-03T00:12:38.132Z,2.90
2018-12-03T00:17:38.366Z,3.40
2018-12-03T00:22:39.127Z,2.80
2018-12-03T00:27:46.932Z,3.90
2018-12-03T00:32:46.387Z,3.70
2018-12-03T00:37:46.990Z,3.20
2018-12-03T00:42:47.224Z,4.30
2018-12-03T00:47:48.057Z,4.50
2018-12-03T00:52:45.443Z,5.40
2018-12-03T00:57:46.719Z,5.40
2018-12-03T01:02:44.678Z,4.70
2018-12-03T01:07:45.416Z,4.80
2018-12-03T01:12:45.796Z,4.60
2018-12-03T01:17:46.799Z,5.10
2018-12-03T01:22:44.422Z,3.40
2018-12-03T01:27:47.728Z,5.80
2018-12-03T01:32:45.189Z,6.70
2018-12-03T01:37:42.936Z,6.20
2018-12-03T01:42:44.136Z,4.60
2018-12-03T01:47:42.896Z,3.30
2018-12-03T01:52:43.587Z,4.90
2018-12-03T01:57:46.328Z,8.20
2018-12-03T02:02:47.113Z,4.40
2018-12-03T02:07:56.065Z,6.10
2018-12-03T02:12:52.917Z,4.90
2018-12-03T02:17:54.254Z,3.80
2018-12-03T02:22:54.355Z,2.90
2018-12-03T02:27:54.967Z,3.10
2018-12-03T02:32:55.283Z,6.30
2018-12-03T02:38:02.725Z,6.00
2018-12-03T02:43:02.403Z,5.90
2018-12-03T02:48:03.284Z,6.10
2018-12-03T02:53:04.694Z,5.30
2018-12-03T02:58:05.572Z,5.50
2018-12-03T03:03:05.607Z,6.40
2018-12-03T03:08:08.276Z,7.70
2018-12-03T03:13:08.842Z,5.80
2018-12-03T03:18:09.158Z,4.80
2018-12-03T03:23:09.976Z,7.10
2018-12-03T03:28:07.658Z,3.20
2018-12-03T03:33:08.668Z,6.40
2018-12-03T03:38:08.730Z,4.80
2018-12-03T03:43:07.416Z,3.30
2018-12-03T08:38:52.435Z,10.00
2018-12-03T08:43:58.546Z,7.70
2018-12-03T08:49:07.537Z,12.80
2018-12-03T08:54:07.198Z,8.20
2018-12-03T08:59:10.852Z,9.20
2018-12-03T09:04:11.365Z,10.10
2018-12-03T09:09:19.761Z,10.30
2018-12-03T09:14:19.650Z,11.10
2018-12-03T09:19:20.218Z,9.50
2018-12-03T09:24:23.348Z,10.90
2018-12-03T09:29:26.921Z,11.00
2018-12-03T09:34:26.990Z,11.40
2018-12-03T09:39:28.320Z,11.70
2018-12-03T09:44:28.681Z,12.50
2018-12-03T09:49:29.431Z,7.90
2018-12-03T09:54:27.957Z,11.80
2018-12-03T09:59:31.316Z,8.80
2018-12-03T10:04:46.106Z,10.70
2018-12-03T10:09:50.778Z,7.40
2018-12-03T10:14:47.476Z,10.30
2018-12-03T10:19:45.640Z,10.40
2018-12-03T10:24:43.305Z,8.60
2018-12-03T10:29:41.256Z,16.60
2018-12-03T10:34:47.403Z,10.50
2018-12-03T10:39:53.117Z,10.20
2018-12-03T10:45:00.684Z,15.00
2018-12-03T10:50:05.415Z,8.70
2018-12-03T10:55:13.264Z,13.30
2018-12-03T11:00:18.384Z,12.10
2018-12-03T11:05:31.487Z,11.10
2018-12-03T11:10:27.180Z,13.40
2018-12-03T11:15:33.808Z,12.00
2018-12-03T11:20:39.526Z,8.90
2018-12-03T11:25:36.513Z,8.40
2018-12-03T11:30:34.990Z,8.80
2018-12-03T11:35:33.154Z,14.10
2018-12-03T11:40:31.726Z,8.00
2018-12-03T11:45:30.442Z,10.70
2018-12-03T11:50:25.575Z,10.10
2018-12-03T11:55:24.518Z,10.60
2018-12-03T12:00:31.080Z,12.30
2018-12-03T12:05:30.289Z,10.10
2018-12-03T12:10:24.631Z,13.00
2018-12-03T12:15:23.254Z,11.10
2018-12-03T12:20:21.673Z,12.60
2018-12-03T12:25:20.138Z,12.80
2018-12-03T12:30:18.321Z,10.10
2018-12-03T12:35:15.919Z,10.40
2018-12-03T12:40:13.663Z,9.60
2018-12-03T12:45:11.760Z,12.10
2018-12-03T12:49:02.276Z,10.40
2018-12-03T12:53:59.527Z,8.50
2018-12-03T12:58:58.273Z,7.30
2018-12-03T13:03:55.935Z,11.10
2018-12-03T13:08:54.668Z,11.30
2018-12-03T13:13:53.001Z,8.20
2018-12-03T13:18:49.058Z,9.80
2018-12-03T13:23:46.844Z,11.00
2018-12-03T13:28:45.124Z,8.10
2018-12-03T13:33:43.973Z,11.10
2018-12-03T13:38:47.423Z,14.90
2018-12-03T13:43:46.544Z,8.80
2018-12-03T13:48:44.497Z,11.90
2018-12-03T13:53:44.499Z,6.10
2018-12-03T13:58:43.108Z,7.50
2018-12-03T14:03:42.247Z,10.00
2018-12-03T14:08:40.068Z,6.10
2018-12-03T14:13:39.192Z,6.30
2018-12-03T14:18:37.366Z,3.40
2018-12-03T14:23:37.005Z,4.80
2018-12-03T14:28:36.499Z,3.40
2018-12-03T14:33:39.870Z,4.80
2018-12-03T14:38:48.028Z,5.70
2018-12-03T14:43:50.875Z,6.30
2018-12-03T14:48:53.295Z,4.70
2018-12-03T14:53:56.811Z,8.00
2018-12-03T14:58:59.199Z,5.00
2018-12-03T15:04:01.872Z,7.20
2018-12-03T15:09:10.934Z,9.10
2018-12-03T15:14:16.219Z,4.70
2018-12-03T15:19:17.249Z,10.80
2018-12-03T15:24:24.789Z,6.30
2018-12-03T15:29:33.501Z,10.50
2018-12-03T15:34:42.356Z,7.40
2018-12-03T15:39:43.065Z,11.50
2018-12-03T15:44:45.912Z,7.60
2018-12-03T15:49:48.939Z,8.60
2018-12-03T15:54:48.621Z,7.00
2018-12-03T15:59:49.037Z,4.40
2018-12-03T16:04:53.952Z,5.70
2018-12-03T16:09:53.363Z,7.20
2018-12-03T16:14:56.669Z,4.00
2018-12-03T16:20:00.394Z,6.50
2018-12-03T16:25:02.139Z,5.40
2018-12-03T16:36:12.597Z,7.20
2018-12-03T16:41:15.193Z,5.10
2018-12-03T16:46:23.788Z,5.10
2018-12-03T16:51:31.191Z,3.80
2018-12-03T16:56:39.221Z,3.20
2018-12-03T17:01:41.225Z,4.00
2018-12-03T17:06:44.655Z,4.10
2018-12-03T17:11:47.345Z,5.00
2018-12-03T17:16:50.538Z,2.90
2018-12-03T17:21:53.865Z,3.70
2018-12-03T17:26:56.746Z,5.90
2018-12-03T17:32:00.829Z,4.20
2018-12-03T17:37:04.176Z,4.10
2018-12-03T17:42:07.539Z,4.90
2018-12-03T17:47:09.952Z,4.10
2018-12-03T17:52:13.295Z,4.90
2018-12-03T17:57:19.076Z,6.30
2018-12-03T18:02:21.197Z,4.10
2018-12-03T18:07:25.741Z,6.20
2018-12-03T18:12:31.339Z,5.30
2018-12-03T18:17:34.219Z,5.60
2018-12-03T18:22:45.009Z,7.60
2018-12-03T18:27:53.421Z,7.10
2018-12-03T18:33:03.608Z,6.50
2018-12-03T18:38:09.644Z,9.20
2018-12-03T18:43:10.143Z,8.50
2018-12-03T18:48:20.595Z,7.90
2018-12-03T18:53:25.204Z,6.00
2018-12-03T18:58:29.088Z,10.30
2018-12-03T19:03:40.603Z,10.00
2018-12-03T19:08:54.919Z,10.00
2018-12-03T19:13:59.994Z,7.10
2018-12-03T19:19:05.781Z,7.90
2018-12-03T19:24:19.172Z,9.20
2018-12-03T19:29:24.045Z,6.70
2018-12-03T19:34:31.635Z,8.00
2018-12-03T19:39:43.755Z,12.90
2018-12-03T19:44:48.136Z,10.30
2018-12-03T19:49:55.990Z,9.00
2018-12-03T19:55:02.232Z,7.10
2018-12-03T20:00:07.511Z,10.10
2018-12-03T20:05:13.280Z,12.10
2018-12-03T20:10:18.111Z,9.00
2018-12-03T20:15:31.747Z,10.20
2018-12-03T20:20:39.660Z,11.70
2018-12-03T20:25:45.120Z,11.40
2018-12-03T20:30:59.216Z,10.30
2018-12-03T20:36:06.895Z,15.50
2018-12-03T20:41:21.535Z,12.40
2018-12-03T20:46:32.696Z,14.60
2018-12-03T20:51:37.381Z,17.30
2018-12-03T20:56:43.440Z,13.70
2018-12-03T21:01:49.852Z,15.40
2018-12-03T21:06:57.899Z,13.20
2018-12-03T21:12:06.089Z,13.00
2018-12-03T21:17:20.451Z,16.90
2018-12-03T21:22:27.947Z,14.60
2018-12-03T21:27:36.215Z,12.20
2018-12-03T21:32:41.380Z,9.50
2018-12-03T21:37:52.729Z,10.80
2018-12-03T21:42:58.699Z,12.20
2018-12-03T21:48:06.907Z,8.70
2018-12-03T21:53:14.770Z,11.90
2018-12-03T21:58:24.326Z,14.40
2018-12-03T22:03:38.620Z,13.10
2018-12-03T22:08:47.279Z,14.50
2018-12-03T22:14:02.235Z,16.80
2018-12-03T22:19:08.851Z,13.10
2018-12-03T22:24:18.157Z,14.40
2018-12-03T22:29:27.276Z,11.50
2018-12-03T22:34:39.283Z,12.80
2018-12-03T22:39:52.274Z,13.60
2018-12-03T22:45:02.743Z,13.90
2018-12-03T22:50:22.406Z,15.20
2018-12-03T22:55:38.316Z,18.10
2018-12-03T23:00:48.339Z,15.80
2018-12-03T23:06:10.653Z,15.50
2018-12-03T23:11:28.476Z,14.80
2018-12-03T23:16:39.611Z,7.90
2018-12-03T23:22:01.450Z,5.20
2018-12-03T23:27:28.670Z,3.50
